createdAt,value
2022-08-03T00:03:46.493Z,100942.54
2022-08-03T00:08:53.711Z,100957.68
2022-08-03T00:14:00.748Z,100968.54
2022-08-03T00:19:07.892Z,100976.95
2022-08-03T00:24:14.905Z,100980.80
2022-08-03T00:29:21.899Z,100991.21
2022-08-03T00:34:36.472Z,101000.45
2022-08-03T00:39:55.842Z,101049.52
2022-08-03T00:45:05.566Z,101047.77
2022-08-03T00:50:13.826Z,101051.55
2022-08-03T00:55:20.915Z,101058.20
2022-08-03T01:00:29.223Z,101069.58
2022-08-03T01:05:45.591Z,101075.79
2022-08-03T01:11:04.221Z,101090.70
2022-08-03T01:16:14.484Z,101100.52
2022-08-03T01:21:29.330Z,101101.94
2022-08-03T01:26:55.228Z,101125.20
2022-08-03T01:32:58.715Z,101134.31
2022-08-03T01:37:41.722Z,101140.19
2022-08-03T01:42:50.812Z,101151.50
2022-08-03T01:47:59.005Z,101165.59
2022-08-03T01:53:07.965Z,101169.96
2022-08-03T01:58:17.819Z,101191.05
2022-08-03T02:03:25.595Z,101197.91
2022-08-03T02:08:34.548Z,101210.44
2022-08-03T02:13:43.432Z,101210.42
2022-08-03T02:18:52.433Z,101202.69
2022-08-03T02:23:59.719Z,101201.53
2022-08-03T02:29:12.656Z,101201.98
2022-08-03T02:34:24.767Z,101198.13
2022-08-03T02:39:35.449Z,101196.03
2022-08-03T02:44:47.804Z,101194.23
2022-08-03T02:49:58.560Z,101191.73
2022-08-03T02:55:08.376Z,101189.16
2022-08-03T03:00:27.217Z,101192.32
2022-08-03T03:05:52.289Z,101194.42
2022-08-03T03:11:03.361Z,101194.56
2022-08-03T03:16:13.146Z,101200.45
2022-08-03T03:21:22.736Z,101205.27
2022-08-03T03:26:30.078Z,101210.08
2022-08-03T03:31:38.346Z,101215.48
2022-08-03T03:36:45.319Z,101221.52
2022-08-03T03:41:52.423Z,101229.67
2022-08-03T03:47:00.270Z,101228.82
2022-08-03T03:52:08.084Z,101232.67
2022-08-03T03:57:15.041Z,101232.11
2022-08-03T04:02:22.012Z,101236.19
2022-08-03T04:07:52.572Z,101236.63
2022-08-03T04:13:01.897Z,101265.40
2022-08-03T04:18:12.664Z,101255.34
2022-08-03T04:23:22.110Z,101250.17
2022-08-03T04:28:32.074Z,101257.51
2022-08-03T04:33:40.948Z,101253.16
2022-08-03T04:38:57.106Z,101252.14
2022-08-03T04:44:06.213Z,101267.27
2022-08-03T04:49:15.012Z,101268.61
2022-08-03T04:54:22.135Z,101267.46
2022-08-03T04:59:29.117Z,101265.88
2022-08-03T05:04:38.115Z,101273.22
2022-08-03T05:09:52.517Z,101274.79
2022-08-03T05:15:00.480Z,101274.98
2022-08-03T05:20:09.271Z,101274.63
2022-08-03T05:25:19.228Z,101275.70
2022-08-03T05:30:33.464Z,101281.52
2022-08-03T05:35:57.762Z,101286.80
2022-08-03T05:41:22.683Z,101293.48
2022-08-03T05:46:31.230Z,101299.37
2022-08-03T05:51:38.403Z,101305.80
2022-08-03T05:56:45.572Z,101310.92
2022-08-03T06:01:52.885Z,101313.95
2022-08-03T06:07:00.012Z,101314.20
2022-08-03T06:12:11.181Z,101316.95
2022-08-03T06:17:20.992Z,101323.09
2022-08-03T06:22:28.224Z,101338.55
2022-08-03T06:27:37.666Z,101349.17
2022-08-03T06:32:44.821Z,101352.20
2022-08-03T06:37:59.397Z,101355.09
2022-08-03T06:43:12.452Z,101383.48
2022-08-03T06:48:19.959Z,101397.67
2022-08-03T06:53:26.957Z,101397.77
2022-08-03T06:58:33.972Z,101404.23
2022-08-03T07:03:52.137Z,101422.30
2022-08-03T07:08:59.947Z,101423.45
2022-08-03T07:14:07.614Z,101426.14
2022-08-03T07:19:15.348Z,101425.88
2022-08-03T07:24:22.314Z,101437.73
2022-08-03T07:29:29.241Z,101441.85
2022-08-03T07:34:41.669Z,101443.96
2022-08-03T07:39:48.867Z,101453.86
2022-08-03T07:44:56.014Z,101458.06
2022-08-03T07:50:03.004Z,101472.51
2022-08-03T07:55:11.561Z,101491.68
2022-08-03T08:00:21.131Z,101509.49
2022-08-03T08:05:36.334Z,101527.88
2022-08-03T08:10:58.294Z,101551.74
2022-08-03T08:16:06.497Z,101576.94
2022-08-03T08:21:14.514Z,101576.23
2022-08-03T08:26:21.835Z,101583.63
2022-08-03T08:31:30.731Z,101589.84
2022-08-03T08:36:40.996Z,101598.30
2022-08-03T08:41:53.152Z,101612.06
2022-08-03T08:47:04.059Z,101642.77
2022-08-03T08:52:25.012Z,101644.75
2022-08-03T08:57:43.289Z,101653.91
2022-08-03T09:02:53.449Z,101653.23
2022-08-03T09:08:01.114Z,101654.91
2022-08-03T09:13:12.628Z,101652.12
2022-08-03T09:18:32.851Z,101655.31
2022-08-03T09:24:02.235Z,101648.16
2022-08-03T09:29:15.380Z,101647.12
2022-08-03T09:34:28.582Z,101632.15
2022-08-03T09:39:41.771Z,101622.96
2022-08-03T09:44:51.206Z,101599.23
2022-08-03T09:50:02.615Z,101574.57
2022-08-03T09:56:30.765Z,101536.92
2022-08-03T10:00:56.901Z,101509.77
2022-08-03T10:06:19.402Z,101475.09
2022-08-03T10:11:40.779Z,101445.26
2022-08-03T10:16:50.315Z,101382.98
2022-08-03T10:22:02.525Z,101300.91
2022-08-03T10:27:12.373Z,101254.77
2022-08-03T10:32:23.288Z,101222.63
2022-08-03T10:37:33.660Z,101174.06
2022-08-03T10:42:42.631Z,101127.78
2022-08-03T10:47:51.007Z,101103.46
2022-08-03T10:53:01.985Z,101096.61
2022-08-03T10:58:11.538Z,100938.48
2022-08-03T11:03:18.725Z,100718.21
2022-08-03T11:08:34.980Z,100762.48
2022-08-03T11:14:00.145Z,100789.14
2022-08-03T11:19:08.581Z,100811.27
2022-08-03T11:24:54.463Z,100816.73
2022-08-03T11:30:10.619Z,100805.96
2022-08-03T11:35:19.880Z,100796.41
2022-08-03T11:40:39.251Z,100794.27
2022-08-03T11:45:59.592Z,100790.00
2022-08-03T11:51:07.825Z,100778.02
2022-08-03T11:56:14.734Z,100752.90
2022-08-03T12:01:23.376Z,100687.17
2022-08-03T12:06:30.479Z,100635.87
2022-08-03T12:11:37.503Z,100421.02
2022-08-03T12:16:58.038Z,100348.23
2022-08-03T12:22:05.321Z,100265.30
2022-08-03T12:27:12.364Z,100104.89
2022-08-03T12:32:19.453Z,100043.64
2022-08-03T12:37:26.756Z,99960.02
2022-08-03T12:42:35.378Z,99887.11
2022-08-03T12:47:57.768Z,99889.61
2022-08-03T12:53:08.012Z,99711.33
2022-08-03T12:58:34.545Z,99506.59
2022-08-03T13:03:49.984Z,99638.10
2022-08-03T13:09:08.606Z,99719.16
2022-08-03T13:14:19.738Z,99767.33
2022-08-03T13:19:27.715Z,99707.13
2022-08-03T13:24:35.149Z,99819.86
2022-08-03T13:29:44.106Z,99997.86
2022-08-03T13:34:51.409Z,99702.11
2022-08-03T13:40:02.391Z,99821.44
2022-08-03T13:45:11.624Z,99858.41
2022-08-03T13:50:19.325Z,99841.10
2022-08-03T13:55:26.938Z,99752.57
2022-08-03T14:00:36.711Z,99667.46
2022-08-03T14:05:44.653Z,99857.14
2022-08-03T14:10:51.671Z,99914.60
2022-08-03T14:15:58.591Z,99934.98
2022-08-03T14:21:07.557Z,99811.54
2022-08-03T14:26:14.717Z,99735.07
2022-08-03T14:32:10.799Z,99912.77
2022-08-03T14:36:48.956Z,99941.20
2022-08-03T14:41:56.026Z,99965.95
2022-08-03T14:47:03.253Z,99924.93
2022-08-03T14:52:11.227Z,99971.27
2022-08-03T14:57:18.333Z,99838.98
2022-08-03T15:02:25.678Z,99643.95
2022-08-03T15:07:32.784Z,99785.21
2022-08-03T15:12:39.616Z,100037.91
2022-08-03T15:18:00.220Z,100091.74
2022-08-03T15:23:07.866Z,100101.66
2022-08-03T15:28:16.628Z,100024.09
2022-08-03T15:33:25.434Z,100108.55
2022-08-03T15:38:32.765Z,100081.43
2022-08-03T15:43:41.386Z,100042.42
2022-08-03T15:49:00.435Z,100052.71
2022-08-03T15:54:08.741Z,100009.79
2022-08-03T15:59:23.971Z,100056.70
2022-08-03T16:04:34.711Z,100140.48
2022-08-03T16:09:44.023Z,100169.77
2022-08-03T16:14:53.751Z,100158.95
2022-08-03T16:20:02.637Z,100125.81
2022-08-03T16:25:16.208Z,100111.14
2022-08-03T16:30:23.799Z,100160.89
2022-08-03T16:35:31.140Z,100154.44
2022-08-03T16:40:38.525Z,100164.13
2022-08-03T16:45:45.711Z,100162.63
2022-08-03T16:50:52.688Z,100171.55
2022-08-03T16:55:59.720Z,100182.66
2022-08-03T17:01:20.829Z,100182.31
2022-08-03T17:06:33.960Z,100217.81
2022-08-03T17:11:47.206Z,100253.81
2022-08-03T17:16:58.285Z,100257.38
2022-08-03T17:22:10.725Z,100264.41
2022-08-03T17:27:23.226Z,100260.67
2022-08-03T17:32:53.511Z,100286.64
2022-08-03T17:38:08.982Z,100316.46
2022-08-03T17:44:12.934Z,100339.77
2022-08-03T17:48:46.330Z,100349.59
2022-08-03T17:54:18.377Z,100366.86
2022-08-03T17:59:52.328Z,100352.48
2022-08-03T18:05:16.421Z,100345.04
2022-08-03T18:10:27.115Z,100355.39
2022-08-03T18:15:39.041Z,100375.70
2022-08-03T18:20:48.749Z,100389.06
2022-08-03T18:25:59.381Z,100398.45
2022-08-03T18:31:11.636Z,100445.45
2022-08-03T18:36:22.070Z,100481.16
2022-08-03T18:41:37.727Z,100502.85
2022-08-03T18:47:07.388Z,100523.98
2022-08-03T18:52:30.511Z,100544.94
2022-08-03T18:57:43.835Z,100555.15
2022-08-03T19:03:02.492Z,100566.50
2022-08-03T19:08:18.180Z,100571.70
2022-08-03T19:13:36.081Z,100589.55
2022-08-03T19:18:47.254Z,100593.94
2022-08-03T19:24:01.044Z,100598.11
2022-08-03T19:29:10.768Z,100611.61
2022-08-03T19:34:27.138Z,100634.77
2022-08-03T19:39:36.213Z,100625.64
2022-08-03T19:44:45.661Z,100634.92
2022-08-03T19:50:10.595Z,100635.88
2022-08-03T19:55:21.477Z,100646.02
2022-08-03T20:00:36.908Z,100665.96
2022-08-03T20:05:52.289Z,100662.96
2022-08-03T20:11:01.287Z,100675.64
2022-08-03T20:16:08.644Z,100678.84
2022-08-03T20:21:18.964Z,100677.52
2022-08-03T20:26:29.762Z,100665.31
2022-08-03T20:31:37.582Z,100682.36
2022-08-03T20:36:44.726Z,100691.06
2022-08-03T20:41:51.759Z,100704.23
2022-08-03T20:47:04.111Z,100710.50
2022-08-03T20:52:18.731Z,100723.17
2022-08-03T20:57:26.966Z,100731.11
2022-08-03T21:02:40.366Z,100741.83
2022-08-03T21:08:05.993Z,100749.34
2022-08-03T21:13:24.658Z,100761.72
2022-08-03T21:18:37.948Z,100774.67
2022-08-03T21:23:49.890Z,100782.11
2022-08-03T21:28:58.309Z,100789.31
2022-08-03T21:34:06.669Z,100790.59
2022-08-03T21:39:13.796Z,100795.41
2022-08-03T21:44:28.852Z,100804.23
2022-08-03T21:50:04.786Z,100809.85
2022-08-03T21:55:08.281Z,100807.64
2022-08-03T22:00:26.441Z,100805.90
2022-08-03T22:05:43.697Z,100813.41
2022-08-03T22:10:51.206Z,100813.10
2022-08-03T22:15:58.969Z,100815.82
2022-08-03T22:21:06.983Z,100817.22
2022-08-03T22:26:34.602Z,100819.84
2022-08-03T22:31:58.115Z,100820.13
2022-08-03T22:37:07.890Z,100827.38
2022-08-03T22:42:16.210Z,100825.98
2022-08-03T22:47:24.569Z,100833.44
2022-08-03T22:52:31.900Z,100839.73
2022-08-03T22:57:39.619Z,100834.94
2022-08-03T23:02:48.904Z,100847.30
2022-08-03T23:07:56.560Z,100848.73
2022-08-03T23:13:04.179Z,100848.66
2022-08-03T23:18:12.438Z,100846.74
2022-08-03T23:23:20.720Z,100845.42
2022-08-03T23:28:31.292Z,100845.52
2022-08-03T23:33:42.283Z,100855.67
2022-08-03T23:38:50.579Z,100854.45
2022-08-03T23:44:00.317Z,100860.17
2022-08-03T23:49:07.424Z,100864.77
2022-08-03T23:54:25.284Z,100870.27
2022-08-03T23:59:43.597Z,100873.91
